Terminal Aerodrome Forecast
Issued by NWS

Home | Current Version | Previous Version | Text Only | Print | Product List | Glossary On
Versions: 1 2 3 4 5 6 7 8 9 10 11 12 13 14 15 16 17 18 19 20 21 22 23 24 25 26 27 28 29 30 31 32 33 34 35 36 37 38 39 40 41 42 43 44 45 46 47 48 49 50
000
FTUS41 KCTP 182351
TAFUNV
TAF
KUNV 182351Z 1900/1924 21007KT P6SM -RA SCT040 OVC080 WS020/21045KT
      TEMPO 1903/1905 2SM RA BR BKN007 OVC025
     FM190500 27016G26KT 6SM -SHRA OVC015
     FM190900 29020G38KT P6SM VCSH OVC025
     FM191800 28015G25KT P6SM BKN050=

USA.gov is the U.S. government's official web portal to all federal, state and local government web resources and services.